PWSweather.com
Personal Weather Stations
Station Observations
KFLSTJOH36
Aberdeen Highland Point, Saint Johns, FL 32259

Aberdeen Highland PointSaint Johns, FL 32259

Lat: 30.082981, Lon: -81.59522

Elevation: 60

Station Type: Acurite 5-in-1 Weather Sensor

High Low Average
Temperature 88.3°F31.3°C 69.8°F21.0°C 79.1°F26.2°C
Dew Point 72.1°F22.3°C 66.9°F19.4°C 69.5°F20.8°C
Winds 16.0 mph 25.7 kmh Calm Calm 4.0 mph ENE6.4 kmh ENE
Wind Gusts -- -- --
Humidity 95% 52% 74%
Pressure 30.33 in1027.1 mb 30.26 in1024.7 mb -
Precipitation 0.00 in0.0 mm - -
Hour Temp Dew Point Humidity Winds Wind Gusts Pressure Precip Precip Rate Daily Precip Total
12:00 AM 73.8°F23.2°C 71.9°F22.2°C 94% Calm Calm -- 30.29 in1025.7 mb 0.02 in0.5 mm 0.00 in0.0 mm 0.02 in0.5 mm
12:15 AM 73.6°F23.1°C 71.7°F22.1°C 94% Calm Calm -- 30.29 in1025.7 mb 0.02 in0.5 mm 0.00 in0.0 mm 0.02 in0.5 mm
12:30 AM 73.6°F23.1°C 71.7°F22.1°C 94% Calm Calm -- 30.29 in1025.7 mb 0.02 in0.5 mm 0.00 in0.0 mm 0.02 in0.5 mm
12:45 AM 73.8°F23.2°C 71.9°F22.2°C 94% Calm Calm -- 30.29 in1025.7 mb 0.01 in0.3 mm 0.00 in0.0 mm 0.02 in0.5 mm
12:55 AM 73.9°F23.3°C 72.1°F22.3°C 94% 1.0 mph NE1.6 kmh NE -- 30.29 in1025.7 mb 0.00 in0.0 mm 0.00 in0.0 mm 0.02 in0.5 mm
01:00 AM 73.9°F23.3°C 72.1°F22.3°C 94% Calm Calm -- 30.29 in1025.7 mb 0.00 in0.0 mm 0.00 in0.0 mm 0.02 in0.5 mm
01:05 AM 73.9°F23.3°C 72.1°F22.3°C 94% Calm Calm -- 30.29 in1025.7 mb 0.00 in0.0 mm 0.00 in0.0 mm 0.02 in0.5 mm
01:10 AM 73.6°F23.1°C 71.7°F22.1°C 94% Calm Calm -- 30.29 in1025.7 mb 0.00 in0.0 mm 0.00 in0.0 mm 0.02 in0.5 mm
01:20 AM 73.4°F23.0°C 71.6°F22.0°C 94% Calm Calm -- 30.28 in1025.4 mb 0.00 in0.0 mm 0.00 in0.0 mm 0.02 in0.5 mm
01:30 AM 73.2°F22.9°C 71.4°F21.9°C 94% Calm Calm -- 30.29 in1025.7 mb 0.00 in0.0 mm 0.00 in0.0 mm 0.02 in0.5 mm
01:40 AM 73.0°F22.8°C 71.2°F21.8°C 94% Calm Calm -- 30.29 in1025.7 mb 0.00 in0.0 mm 0.00 in0.0 mm 0.02 in0.5 mm
01:45 AM 72.9°F22.7°C 71.0°F21.7°C 94% Calm Calm -- 30.29 in1025.7 mb 0.00 in0.0 mm 0.00 in0.0 mm 0.02 in0.5 mm
01:50 AM 73.0°F22.8°C 71.2°F21.8°C 94% Calm Calm -- 30.28 in1025.4 mb 0.00 in0.0 mm 0.00 in0.0 mm 0.02 in0.5 mm
02:20 AM 72.9°F22.7°C 71.3°F21.8°C 95% Calm Calm -- 30.28 in1025.4 mb 0.00 in0.0 mm 0.00 in0.0 mm 0.02 in0.5 mm
02:30 AM 72.7°F22.6°C 71.2°F21.8°C 95% Calm Calm -- 30.28 in1025.4 mb 0.00 in0.0 mm 0.00 in0.0 mm 0.02 in0.5 mm
02:40 AM 72.3°F22.4°C 70.8°F21.6°C 95% Calm Calm -- 30.28 in1025.4 mb 0.00 in0.0 mm 0.00 in0.0 mm 0.02 in0.5 mm
02:50 AM 72.1°F22.3°C 70.6°F21.4°C 95% Calm Calm -- 30.28 in1025.4 mb 0.00 in0.0 mm 0.00 in0.0 mm 0.02 in0.5 mm
02:55 AM 72.0°F22.2°C 70.4°F21.3°C 95% Calm Calm -- 30.27 in1025.1 mb 0.00 in0.0 mm 0.00 in0.0 mm 0.02 in0.5 mm
03:15 AM 71.8°F22.1°C 70.3°F21.3°C 95% Calm Calm -- 30.27 in1025.1 mb 0.00 in0.0 mm 0.00 in0.0 mm 0.02 in0.5 mm
03:20 AM 71.6°F22.0°C 70.1°F21.2°C 95% Calm Calm -- 30.27 in1025.1 mb 0.00 in0.0 mm 0.00 in0.0 mm 0.02 in0.5 mm
03:25 AM 71.4°F21.9°C 69.9°F21.1°C 95% Calm Calm -- 30.27 in1025.1 mb 0.00 in0.0 mm 0.00 in0.0 mm 0.02 in0.5 mm
03:45 AM 71.2°F21.8°C 69.7°F20.9°C 95% Calm Calm -- 30.27 in1025.1 mb 0.00 in0.0 mm 0.00 in0.0 mm 0.02 in0.5 mm
03:50 AM 71.1°F21.7°C 69.5°F20.8°C 95% Calm Calm -- 30.27 in1025.1 mb 0.00 in0.0 mm 0.00 in0.0 mm 0.02 in0.5 mm
03:55 AM 70.7°F21.5°C 69.2°F20.7°C 95% Calm Calm -- 30.27 in1025.1 mb 0.00 in0.0 mm 0.00 in0.0 mm 0.02 in0.5 mm
04:10 AM 70.5°F21.4°C 69.0°F20.6°C 95% Calm Calm -- 30.27 in1025.1 mb 0.00 in0.0 mm 0.00 in0.0 mm 0.02 in0.5 mm
04:45 AM 70.3°F21.3°C 68.8°F20.4°C 95% Calm Calm -- 30.27 in1025.1 mb 0.00 in0.0 mm 0.00 in0.0 mm 0.02 in0.5 mm
04:55 AM 70.5°F21.4°C 69.0°F20.6°C 95% Calm Calm -- 30.27 in1025.1 mb 0.00 in0.0 mm 0.00 in0.0 mm 0.02 in0.5 mm
05:00 AM 70.7°F21.5°C 69.2°F20.7°C 95% Calm Calm -- 30.27 in1025.1 mb 0.00 in0.0 mm 0.00 in0.0 mm 0.02 in0.5 mm
05:10 AM 70.5°F21.4°C 69.0°F20.6°C 95% Calm Calm -- 30.27 in1025.1 mb 0.00 in0.0 mm 0.00 in0.0 mm 0.02 in0.5 mm
05:25 AM 70.5°F21.4°C 69.0°F20.6°C 95% Calm Calm -- 30.26 in1024.7 mb 0.00 in0.0 mm 0.00 in0.0 mm 0.02 in0.5 mm
05:30 AM 70.7°F21.5°C 69.2°F20.7°C 95% Calm Calm -- 30.27 in1025.1 mb 0.00 in0.0 mm 0.00 in0.0 mm 0.02 in0.5 mm
05:40 AM 70.9°F21.6°C 69.4°F20.8°C 95% Calm Calm -- 30.27 in1025.1 mb 0.00 in0.0 mm 0.00 in0.0 mm 0.02 in0.5 mm
05:45 AM 71.1°F21.7°C 69.5°F20.8°C 95% Calm Calm -- 30.27 in1025.1 mb 0.00 in0.0 mm 0.00 in0.0 mm 0.02 in0.5 mm
06:05 AM 70.9°F21.6°C 69.4°F20.8°C 95% Calm Calm -- 30.27 in1025.1 mb 0.00 in0.0 mm 0.00 in0.0 mm 0.02 in0.5 mm
06:10 AM 70.7°F21.5°C 69.2°F20.7°C 95% Calm Calm -- 30.27 in1025.1 mb 0.00 in0.0 mm 0.00 in0.0 mm 0.02 in0.5 mm
06:15 AM 70.5°F21.4°C 69.0°F20.6°C 95% Calm Calm -- 30.28 in1025.4 mb 0.00 in0.0 mm 0.00 in0.0 mm 0.02 in0.5 mm
06:35 AM 70.5°F21.4°C 69.0°F20.6°C 95% Calm Calm -- 30.29 in1025.7 mb 0.00 in0.0 mm 0.00 in0.0 mm 0.02 in0.5 mm
06:40 AM 70.5°F21.4°C 69.0°F20.6°C 95% Calm Calm -- 30.28 in1025.4 mb 0.00 in0.0 mm 0.00 in0.0 mm 0.02 in0.5 mm
06:45 AM 70.3°F21.3°C 68.8°F20.4°C 95% Calm Calm -- 30.29 in1025.7 mb 0.00 in0.0 mm 0.00 in0.0 mm 0.02 in0.5 mm
06:55 AM 70.5°F21.4°C 69.0°F20.6°C 95% Calm Calm -- 30.29 in1025.7 mb 0.00 in0.0 mm 0.00 in0.0 mm 0.02 in0.5 mm
07:00 AM 70.3°F21.3°C 68.8°F20.4°C 95% Calm Calm -- 30.29 in1025.7 mb 0.00 in0.0 mm 0.00 in0.0 mm 0.02 in0.5 mm
07:05 AM 70.2°F21.2°C 68.7°F20.4°C 95% Calm Calm -- 30.29 in1025.7 mb 0.00 in0.0 mm 0.00 in0.0 mm 0.02 in0.5 mm
07:10 AM 70.0°F21.1°C 68.5°F20.3°C 95% Calm Calm -- 30.29 in1025.7 mb 0.00 in0.0 mm 0.00 in0.0 mm 0.02 in0.5 mm
07:35 AM 70.0°F21.1°C 68.5°F20.3°C 95% Calm Calm -- 30.30 in1026.1 mb 0.00 in0.0 mm 0.00 in0.0 mm 0.02 in0.5 mm
07:40 AM 69.8°F21.0°C 68.3°F20.2°C 95% Calm Calm -- 30.30 in1026.1 mb 0.00 in0.0 mm 0.00 in0.0 mm 0.02 in0.5 mm
07:45 AM 70.0°F21.1°C 68.5°F20.3°C 95% Calm Calm -- 30.30 in1026.1 mb 0.00 in0.0 mm 0.00 in0.0 mm 0.02 in0.5 mm
07:50 AM 70.2°F21.2°C 68.7°F20.4°C 95% Calm Calm -- 30.30 in1026.1 mb 0.00 in0.0 mm 0.00 in0.0 mm 0.02 in0.5 mm
07:55 AM 70.3°F21.3°C 68.8°F20.4°C 95% Calm Calm -- 30.30 in1026.1 mb 0.00 in0.0 mm 0.00 in0.0 mm 0.02 in0.5 mm
08:00 AM 70.5°F21.4°C 69.0°F20.6°C 95% Calm Calm -- 30.30 in1026.1 mb 0.00 in0.0 mm 0.00 in0.0 mm 0.02 in0.5 mm
08:05 AM 71.1°F21.7°C 69.5°F20.8°C 95% Calm Calm -- 30.30 in1026.1 mb 0.00 in0.0 mm 0.00 in0.0 mm 0.02 in0.5 mm
08:10 AM 71.1°F21.7°C 69.2°F20.7°C 94% Calm Calm -- 30.30 in1026.1 mb 0.00 in0.0 mm 0.00 in0.0 mm 0.02 in0.5 mm
08:15 AM 71.4°F21.9°C 69.6°F20.9°C 94% Calm Calm -- 30.31 in1026.4 mb 0.00 in0.0 mm 0.00 in0.0 mm 0.02 in0.5 mm
08:20 AM 72.1°F22.3°C 70.3°F21.3°C 94% Calm Calm -- 30.31 in1026.4 mb 0.00 in0.0 mm 0.00 in0.0 mm 0.02 in0.5 mm
08:25 AM 72.5°F22.5°C 70.7°F21.5°C 94% Calm Calm -- 30.31 in1026.4 mb 0.00 in0.0 mm 0.00 in0.0 mm 0.02 in0.5 mm
08:30 AM 72.7°F22.6°C 70.8°F21.6°C 94% Calm Calm -- 30.31 in1026.4 mb 0.00 in0.0 mm 0.00 in0.0 mm 0.02 in0.5 mm
08:35 AM 73.0°F22.8°C 71.2°F21.8°C 94% Calm Calm -- 30.31 in1026.4 mb 0.00 in0.0 mm 0.00 in0.0 mm 0.02 in0.5 mm
08:40 AM 73.8°F23.2°C 71.9°F22.2°C 94% Calm Calm -- 30.31 in1026.4 mb 0.00 in0.0 mm 0.00 in0.0 mm 0.02 in0.5 mm
08:45 AM 74.3°F23.5°C 72.1°F22.3°C 93% Calm Calm -- 30.31 in1026.4 mb 0.00 in0.0 mm 0.00 in0.0 mm 0.02 in0.5 mm
08:50 AM 74.8°F23.8°C 72.0°F22.2°C 91% Calm Calm -- 30.32 in1026.8 mb 0.00 in0.0 mm 0.00 in0.0 mm 0.02 in0.5 mm
08:55 AM 76.3°F24.6°C 71.8°F22.1°C 86% Calm Calm -- 30.32 in1026.8 mb 0.00 in0.0 mm 0.00 in0.0 mm 0.02 in0.5 mm
09:00 AM 77.2°F25.1°C 72.0°F22.2°C 84% Calm Calm -- 30.32 in1026.8 mb 0.00 in0.0 mm 0.00 in0.0 mm 0.02 in0.5 mm
09:05 AM 78.1°F25.6°C 71.8°F22.1°C 81% 3.0 mph ENE4.8 kmh ENE -- 30.32 in1026.8 mb 0.00 in0.0 mm 0.00 in0.0 mm 0.02 in0.5 mm
09:10 AM 78.8°F26.0°C 71.7°F22.1°C 79% 2.0 mph NE3.2 kmh NE -- 30.32 in1026.8 mb 0.00 in0.0 mm 0.00 in0.0 mm 0.02 in0.5 mm
09:15 AM 79.5°F26.4°C 71.3°F21.8°C 76% 1.0 mph NE1.6 kmh NE -- 30.32 in1026.8 mb 0.00 in0.0 mm 0.00 in0.0 mm 0.02 in0.5 mm
09:20 AM 80.4°F26.9°C 71.4°F21.9°C 74% 3.0 mph ENE4.8 kmh ENE -- 30.32 in1026.8 mb 0.00 in0.0 mm 0.00 in0.0 mm 0.02 in0.5 mm
09:25 AM 81.0°F27.2°C 71.5°F21.9°C 73% 2.0 mph ENE3.2 kmh ENE -- 30.32 in1026.8 mb 0.00 in0.0 mm 0.00 in0.0 mm 0.02 in0.5 mm
09:30 AM 81.3°F27.4°C 71.8°F22.1°C 73% 4.0 mph NE6.4 kmh NE -- 30.32 in1026.8 mb 0.00 in0.0 mm 0.00 in0.0 mm 0.02 in0.5 mm
09:35 AM 82.0°F27.8°C 70.9°F21.6°C 69% 5.0 mph ENE8.0 kmh ENE -- 30.32 in1026.8 mb 0.00 in0.0 mm 0.00 in0.0 mm 0.02 in0.5 mm
09:40 AM 82.8°F28.2°C 71.1°F21.7°C 68% 5.0 mph NE8.0 kmh NE -- 30.32 in1026.8 mb 0.00 in0.0 mm 0.00 in0.0 mm 0.02 in0.5 mm
09:45 AM 82.8°F28.2°C 70.7°F21.5°C 67% 3.0 mph ENE4.8 kmh ENE -- 30.32 in1026.8 mb 0.00 in0.0 mm 0.00 in0.0 mm 0.02 in0.5 mm
09:50 AM 82.9°F28.3°C 71.3°F21.8°C 68% 8.0 mph ENE12.9 kmh ENE -- 30.33 in1027.1 mb 0.00 in0.0 mm 0.00 in0.0 mm 0.02 in0.5 mm
09:55 AM 82.4°F28.0°C 71.2°F21.8°C 69% 3.0 mph ESE4.8 kmh ESE -- 30.33 in1027.1 mb 0.00 in0.0 mm 0.00 in0.0 mm 0.02 in0.5 mm
10:00 AM 82.2°F27.9°C 70.6°F21.4°C 68% 4.0 mph NE6.4 kmh NE -- 30.33 in1027.1 mb 0.00 in0.0 mm 0.00 in0.0 mm 0.02 in0.5 mm
10:05 AM 82.2°F27.9°C 70.6°F21.4°C 68% 4.0 mph ESE6.4 kmh ESE -- 30.33 in1027.1 mb 0.00 in0.0 mm 0.00 in0.0 mm 0.02 in0.5 mm
10:10 AM 82.8°F28.2°C 70.7°F21.5°C 67% 4.0 mph ESE6.4 kmh ESE -- 30.33 in1027.1 mb 0.00 in0.0 mm 0.00 in0.0 mm 0.02 in0.5 mm
10:15 AM 83.8°F28.8°C 70.8°F21.6°C 65% 7.0 mph ENE11.3 kmh ENE -- 30.33 in1027.1 mb 0.00 in0.0 mm 0.00 in0.0 mm 0.02 in0.5 mm
10:20 AM 83.8°F28.8°C 70.8°F21.6°C 65% 5.0 mph E8.0 kmh E -- 30.33 in1027.1 mb 0.00 in0.0 mm 0.00 in0.0 mm 0.02 in0.5 mm
10:25 AM 83.5°F28.6°C 70.9°F21.6°C 66% 6.0 mph E9.7 kmh E -- 30.33 in1027.1 mb 0.00 in0.0 mm 0.00 in0.0 mm 0.02 in0.5 mm
10:30 AM 83.8°F28.8°C 70.4°F21.3°C 64% 4.0 mph E6.4 kmh E -- 30.33 in1027.1 mb 0.00 in0.0 mm 0.00 in0.0 mm 0.02 in0.5 mm
10:35 AM 84.4°F29.1°C 70.0°F21.1°C 62% 7.0 mph ENE11.3 kmh ENE -- 30.33 in1027.1 mb 0.00 in0.0 mm 0.00 in0.0 mm 0.02 in0.5 mm
10:40 AM 84.0°F28.9°C 70.5°F21.4°C 64% 6.0 mph E9.7 kmh E -- 30.33 in1027.1 mb 0.00 in0.0 mm 0.00 in0.0 mm 0.02 in0.5 mm
10:45 AM 84.0°F28.9°C 70.1°F21.2°C 63% 6.0 mph NE9.7 kmh NE -- 30.33 in1027.1 mb 0.00 in0.0 mm 0.00 in0.0 mm 0.02 in0.5 mm
10:50 AM 84.9°F29.4°C 70.0°F21.1°C 61% 6.0 mph NE9.7 kmh NE -- 30.33 in1027.1 mb 0.00 in0.0 mm 0.00 in0.0 mm 0.02 in0.5 mm
10:55 AM 84.7°F29.3°C 69.3°F20.7°C 60% 11.0 mph ESE17.7 kmh ESE -- 30.33 in1027.1 mb 0.00 in0.0 mm 0.00 in0.0 mm 0.02 in0.5 mm
11:00 AM 84.4°F29.1°C 68.5°F20.3°C 59% 5.0 mph 8.0 kmh -- 30.33 in1027.1 mb 0.00 in0.0 mm 0.00 in0.0 mm 0.02 in0.5 mm
11:05 AM 84.2°F29.0°C 68.3°F20.2°C 59% 10.0 mph ENE16.1 kmh ENE -- 30.33 in1027.1 mb 0.00 in0.0 mm 0.00 in0.0 mm 0.02 in0.5 mm
11:10 AM 84.9°F29.4°C 68.0°F20.0°C 57% 11.0 mph ESE17.7 kmh ESE -- 30.33 in1027.1 mb 0.00 in0.0 mm 0.00 in0.0 mm 0.02 in0.5 mm
11:15 AM 85.6°F29.8°C 69.2°F20.7°C 58% 4.0 mph E6.4 kmh E -- 30.33 in1027.1 mb 0.00 in0.0 mm 0.00 in0.0 mm 0.02 in0.5 mm
11:20 AM 85.6°F29.8°C 68.7°F20.4°C 57% 7.0 mph E11.3 kmh E -- 30.33 in1027.1 mb 0.00 in0.0 mm 0.00 in0.0 mm 0.02 in0.5 mm
11:25 AM 86.0°F30.0°C 68.5°F20.3°C 56% 5.0 mph ENE8.0 kmh ENE -- 30.33 in1027.1 mb 0.00 in0.0 mm 0.00 in0.0 mm 0.02 in0.5 mm
11:30 AM 87.1°F30.6°C 69.0°F20.6°C 55% 6.0 mph E9.7 kmh E -- 30.33 in1027.1 mb 0.00 in0.0 mm 0.00 in0.0 mm 0.02 in0.5 mm
11:35 AM 86.5°F30.3°C 68.5°F20.3°C 55% 10.0 mph NNE16.1 kmh NNE -- 30.33 in1027.1 mb 0.00 in0.0 mm 0.00 in0.0 mm 0.02 in0.5 mm
11:40 AM 86.2°F30.1°C 68.2°F20.1°C 55% 8.0 mph NW12.9 kmh NW -- 30.33 in1027.1 mb 0.00 in0.0 mm 0.00 in0.0 mm 0.02 in0.5 mm
11:45 AM 86.2°F30.1°C 67.6°F19.8°C 54% 9.0 mph ENE14.5 kmh ENE -- 30.33 in1027.1 mb 0.00 in0.0 mm 0.00 in0.0 mm 0.02 in0.5 mm
11:50 AM 86.5°F30.3°C 68.5°F20.3°C 55% 5.0 mph E8.0 kmh E -- 30.32 in1026.8 mb 0.00 in0.0 mm 0.00 in0.0 mm 0.02 in0.5 mm
11:55 AM 87.1°F30.6°C 67.4°F19.7°C 52% 6.0 mph ENE9.7 kmh ENE -- 30.32 in1026.8 mb 0.00 in0.0 mm 0.00 in0.0 mm 0.02 in0.5 mm
12:00 PM 86.0°F30.0°C 66.9°F19.4°C 53% 8.0 mph NNE12.9 kmh NNE -- 30.33 in1027.1 mb 0.00 in0.0 mm 0.00 in0.0 mm 0.02 in0.5 mm
12:05 PM 85.5°F29.7°C 68.0°F20.0°C 56% 4.0 mph ENE6.4 kmh ENE -- 30.33 in1027.1 mb 0.00 in0.0 mm 0.00 in0.0 mm 0.02 in0.5 mm
12:10 PM 85.6°F29.8°C 68.2°F20.1°C 56% 3.0 mph NNW4.8 kmh NNW -- 30.33 in1027.1 mb 0.00 in0.0 mm 0.00 in0.0 mm 0.02 in0.5 mm
12:15 PM 85.6°F29.8°C 68.7°F20.4°C 57% 9.0 mph ENE14.5 kmh ENE -- 30.33 in1027.1 mb 0.00 in0.0 mm 0.00 in0.0 mm 0.02 in0.5 mm
12:20 PM 85.3°F29.6°C 68.3°F20.2°C 57% 10.0 mph ESE16.1 kmh ESE -- 30.33 in1027.1 mb 0.00 in0.0 mm 0.00 in0.0 mm 0.02 in0.5 mm
12:25 PM 85.1°F29.5°C 68.7°F20.4°C 58% 9.0 mph ENE14.5 kmh ENE -- 30.33 in1027.1 mb 0.00 in0.0 mm 0.00 in0.0 mm 0.02 in0.5 mm
12:30 PM 85.6°F29.8°C 68.7°F20.4°C 57% 5.0 mph ENE8.0 kmh ENE -- 30.33 in1027.1 mb 0.00 in0.0 mm 0.00 in0.0 mm 0.02 in0.5 mm
12:35 PM 87.3°F30.7°C 68.6°F20.3°C 54% 10.0 mph ENE16.1 kmh ENE -- 30.33 in1027.1 mb 0.00 in0.0 mm 0.00 in0.0 mm 0.02 in0.5 mm
12:40 PM 85.1°F29.5°C 68.2°F20.1°C 57% 9.0 mph E14.5 kmh E -- 30.32 in1026.8 mb 0.00 in0.0 mm 0.00 in0.0 mm 0.02 in0.5 mm
12:45 PM 85.1°F29.5°C 68.2°F20.1°C 57% 9.0 mph ENE14.5 kmh ENE -- 30.33 in1027.1 mb 0.00 in0.0 mm 0.00 in0.0 mm 0.02 in0.5 mm
12:50 PM 85.1°F29.5°C 68.7°F20.4°C 58% 7.0 mph E11.3 kmh E -- 30.32 in1026.8 mb 0.00 in0.0 mm 0.00 in0.0 mm 0.02 in0.5 mm
12:55 PM 86.5°F30.3°C 69.5°F20.8°C 57% 12.0 mph E19.3 kmh E -- 30.32 in1026.8 mb 0.00 in0.0 mm 0.00 in0.0 mm 0.02 in0.5 mm
01:00 PM 87.3°F30.7°C 68.1°F20.1°C 53% 8.0 mph NNW12.9 kmh NNW -- 30.32 in1026.8 mb 0.00 in0.0 mm 0.00 in0.0 mm 0.02 in0.5 mm
01:05 PM 86.4°F30.2°C 67.2°F19.6°C 53% 8.0 mph ESE12.9 kmh ESE -- 30.31 in1026.4 mb 0.00 in0.0 mm 0.00 in0.0 mm 0.02 in0.5 mm
01:10 PM 85.1°F29.5°C 67.7°F19.8°C 56% 2.0 mph NNE3.2 kmh NNE -- 30.32 in1026.8 mb 0.00 in0.0 mm 0.00 in0.0 mm 0.02 in0.5 mm
01:15 PM 85.5°F29.7°C 68.5°F20.3°C 57% 7.0 mph NE11.3 kmh NE -- 30.31 in1026.4 mb 0.00 in0.0 mm 0.00 in0.0 mm 0.02 in0.5 mm
01:20 PM 86.5°F30.3°C 69.0°F20.6°C 56% 8.0 mph ENE12.9 kmh ENE -- 30.31 in1026.4 mb 0.00 in0.0 mm 0.00 in0.0 mm 0.02 in0.5 mm
01:25 PM 84.9°F29.4°C 67.5°F19.7°C 56% 6.0 mph E9.7 kmh E -- 30.31 in1026.4 mb 0.00 in0.0 mm 0.00 in0.0 mm 0.02 in0.5 mm
01:30 PM 84.9°F29.4°C 68.0°F20.0°C 57% 9.0 mph NE14.5 kmh NE -- 30.31 in1026.4 mb 0.00 in0.0 mm 0.00 in0.0 mm 0.02 in0.5 mm
01:35 PM 85.8°F29.9°C 68.3°F20.2°C 56% 6.0 mph NE9.7 kmh NE -- 30.31 in1026.4 mb 0.00 in0.0 mm 0.00 in0.0 mm 0.02 in0.5 mm
01:40 PM 85.8°F29.9°C 67.8°F19.9°C 55% 5.0 mph ESE8.0 kmh ESE -- 30.31 in1026.4 mb 0.00 in0.0 mm 0.00 in0.0 mm 0.02 in0.5 mm
01:45 PM 87.3°F30.7°C 68.1°F20.1°C 53% 6.0 mph SE9.7 kmh SE -- 30.30 in1026.1 mb 0.00 in0.0 mm 0.00 in0.0 mm 0.02 in0.5 mm
01:50 PM 87.1°F30.6°C 68.5°F20.3°C 54% 11.0 mph E17.7 kmh E -- 30.30 in1026.1 mb 0.00 in0.0 mm 0.00 in0.0 mm 0.02 in0.5 mm
01:55 PM 88.3°F31.3°C 68.5°F20.3°C 52% 12.0 mph E19.3 kmh E -- 30.30 in1026.1 mb 0.00 in0.0 mm 0.00 in0.0 mm 0.02 in0.5 mm
02:00 PM 87.4°F30.8°C 68.8°F20.4°C 54% 7.0 mph NE11.3 kmh NE -- 30.30 in1026.1 mb 0.00 in0.0 mm 0.00 in0.0 mm 0.02 in0.5 mm
02:05 PM 86.9°F30.5°C 68.8°F20.4°C 55% 10.0 mph SSE16.1 kmh SSE -- 30.30 in1026.1 mb 0.00 in0.0 mm 0.00 in0.0 mm 0.02 in0.5 mm
02:10 PM 85.8°F29.9°C 67.8°F19.9°C 55% 10.0 mph E16.1 kmh E -- 30.30 in1026.1 mb 0.00 in0.0 mm 0.00 in0.0 mm 0.02 in0.5 mm
02:15 PM 85.8°F29.9°C 68.9°F20.5°C 57% 7.0 mph ENE11.3 kmh ENE -- 30.30 in1026.1 mb 0.00 in0.0 mm 0.00 in0.0 mm 0.02 in0.5 mm
02:20 PM 86.0°F30.0°C 68.5°F20.3°C 56% 7.0 mph E11.3 kmh E -- 30.29 in1025.7 mb 0.00 in0.0 mm 0.00 in0.0 mm 0.02 in0.5 mm
02:25 PM 86.7°F30.4°C 69.2°F20.7°C 56% 6.0 mph ESE9.7 kmh ESE -- 30.29 in1025.7 mb 0.00 in0.0 mm 0.00 in0.0 mm 0.02 in0.5 mm
02:30 PM 86.9°F30.5°C 69.4°F20.8°C 56% 4.0 mph ENE6.4 kmh ENE -- 30.29 in1025.7 mb 0.00 in0.0 mm 0.00 in0.0 mm 0.02 in0.5 mm
02:35 PM 85.8°F29.9°C 69.4°F20.8°C 58% 9.0 mph ENE14.5 kmh ENE -- 30.29 in1025.7 mb 0.00 in0.0 mm 0.00 in0.0 mm 0.02 in0.5 mm
02:40 PM 85.3°F29.6°C 69.4°F20.8°C 59% 7.0 mph ENE11.3 kmh ENE -- 30.29 in1025.7 mb 0.00 in0.0 mm 0.00 in0.0 mm 0.02 in0.5 mm
02:45 PM 84.2°F29.0°C 68.3°F20.2°C 59% 7.0 mph ENE11.3 kmh ENE -- 30.29 in1025.7 mb 0.00 in0.0 mm 0.00 in0.0 mm 0.02 in0.5 mm
02:50 PM 84.6°F29.2°C 69.2°F20.7°C 60% 2.0 mph E3.2 kmh E -- 30.29 in1025.7 mb 0.00 in0.0 mm 0.00 in0.0 mm 0.02 in0.5 mm
02:55 PM 85.3°F29.6°C 69.8°F21.0°C 60% 16.0 mph NE25.7 kmh NE -- 30.29 in1025.7 mb 0.00 in0.0 mm 0.00 in0.0 mm 0.02 in0.5 mm
03:00 PM 84.4°F29.1°C 70.0°F21.1°C 62% 7.0 mph E11.3 kmh E -- 30.29 in1025.7 mb 0.00 in0.0 mm 0.00 in0.0 mm 0.02 in0.5 mm
03:05 PM 85.8°F29.9°C 69.9°F21.1°C 59% 7.0 mph E11.3 kmh E -- 30.28 in1025.4 mb 0.00 in0.0 mm 0.00 in0.0 mm 0.02 in0.5 mm
03:10 PM 86.5°F30.3°C 69.5°F20.8°C 57% 4.0 mph ESE6.4 kmh ESE -- 30.28 in1025.4 mb 0.00 in0.0 mm 0.00 in0.0 mm 0.02 in0.5 mm
03:15 PM 85.6°F29.8°C 69.2°F20.7°C 58% 3.0 mph NE4.8 kmh NE -- 30.28 in1025.4 mb 0.00 in0.0 mm 0.00 in0.0 mm 0.02 in0.5 mm
03:20 PM 85.6°F29.8°C 68.7°F20.4°C 57% 10.0 mph NE16.1 kmh NE -- 30.28 in1025.4 mb 0.00 in0.0 mm 0.00 in0.0 mm 0.02 in0.5 mm
03:25 PM 84.7°F29.3°C 67.8°F19.9°C 57% 4.0 mph NNE6.4 kmh NNE -- 30.27 in1025.1 mb 0.00 in0.0 mm 0.00 in0.0 mm 0.02 in0.5 mm
03:30 PM 86.4°F30.2°C 68.3°F20.2°C 55% 9.0 mph NNE14.5 kmh NNE -- 30.27 in1025.1 mb 0.00 in0.0 mm 0.00 in0.0 mm 0.02 in0.5 mm
03:35 PM 86.2°F30.1°C 68.2°F20.1°C 55% 8.0 mph SE12.9 kmh SE -- 30.27 in1025.1 mb 0.00 in0.0 mm 0.00 in0.0 mm 0.02 in0.5 mm
03:40 PM 84.6°F29.2°C 68.2°F20.1°C 58% 8.0 mph NNE12.9 kmh NNE -- 30.27 in1025.1 mb 0.00 in0.0 mm 0.00 in0.0 mm 0.02 in0.5 mm
03:45 PM 84.4°F29.1°C 67.5°F19.7°C 57% 9.0 mph ENE14.5 kmh ENE -- 30.27 in1025.1 mb 0.00 in0.0 mm 0.00 in0.0 mm 0.02 in0.5 mm
03:50 PM 85.6°F29.8°C 67.6°F19.8°C 55% 4.0 mph ESE6.4 kmh ESE -- 30.27 in1025.1 mb 0.00 in0.0 mm 0.00 in0.0 mm 0.02 in0.5 mm
03:55 PM 85.6°F29.8°C 67.6°F19.8°C 55% 5.0 mph E8.0 kmh E -- 30.27 in1025.1 mb 0.00 in0.0 mm 0.00 in0.0 mm 0.02 in0.5 mm
04:00 PM 85.8°F29.9°C 67.3°F19.6°C 54% 9.0 mph E14.5 kmh E -- 30.27 in1025.1 mb 0.00 in0.0 mm 0.00 in0.0 mm 0.02 in0.5 mm
04:05 PM 85.8°F29.9°C 67.3°F19.6°C 54% 9.0 mph NE14.5 kmh NE -- 30.27 in1025.1 mb 0.00 in0.0 mm 0.00 in0.0 mm 0.02 in0.5 mm
04:10 PM 85.8°F29.9°C 68.3°F20.2°C 56% 7.0 mph NE11.3 kmh NE -- 30.27 in1025.1 mb 0.00 in0.0 mm 0.00 in0.0 mm 0.02 in0.5 mm
04:15 PM 85.3°F29.6°C 67.8°F19.9°C 56% 4.0 mph ESE6.4 kmh ESE -- 30.27 in1025.1 mb 0.00 in0.0 mm 0.00 in0.0 mm 0.02 in0.5 mm
04:20 PM 85.8°F29.9°C 68.3°F20.2°C 56% 8.0 mph SSE12.9 kmh SSE -- 30.27 in1025.1 mb 0.00 in0.0 mm 0.00 in0.0 mm 0.02 in0.5 mm
04:25 PM 86.0°F30.0°C 68.5°F20.3°C 56% 6.0 mph NNE9.7 kmh NNE -- 30.26 in1024.7 mb 0.00 in0.0 mm 0.00 in0.0 mm 0.02 in0.5 mm
04:30 PM 86.5°F30.3°C 69.0°F20.6°C 56% 7.0 mph E11.3 kmh E -- 30.27 in1025.1 mb 0.00 in0.0 mm 0.00 in0.0 mm 0.02 in0.5 mm
04:35 PM 86.2°F30.1°C 69.7°F20.9°C 58% 9.0 mph ESE14.5 kmh ESE -- 30.26 in1024.7 mb 0.00 in0.0 mm 0.00 in0.0 mm 0.02 in0.5 mm
04:40 PM 84.7°F29.3°C 70.3°F21.3°C 62% 4.0 mph ENE6.4 kmh ENE -- 30.26 in1024.7 mb 0.00 in0.0 mm 0.00 in0.0 mm 0.02 in0.5 mm
04:45 PM 84.9°F29.4°C 70.5°F21.4°C 62% 4.0 mph E6.4 kmh E -- 30.26 in1024.7 mb 0.00 in0.0 mm 0.00 in0.0 mm 0.02 in0.5 mm
04:50 PM 85.3°F29.6°C 70.3°F21.3°C 61% 8.0 mph NNE12.9 kmh NNE -- 30.26 in1024.7 mb 0.00 in0.0 mm 0.00 in0.0 mm 0.02 in0.5 mm
04:55 PM 84.9°F29.4°C 70.5°F21.4°C 62% 6.0 mph ESE9.7 kmh ESE -- 30.26 in1024.7 mb 0.00 in0.0 mm 0.00 in0.0 mm 0.02 in0.5 mm
05:00 PM 85.1°F29.5°C 70.6°F21.4°C 62% 10.0 mph NE16.1 kmh NE -- 30.26 in1024.7 mb 0.00 in0.0 mm 0.00 in0.0 mm 0.02 in0.5 mm
05:05 PM 84.6°F29.2°C 70.6°F21.4°C 63% 4.0 mph WSW6.4 kmh WSW -- 30.26 in1024.7 mb 0.00 in0.0 mm 0.00 in0.0 mm 0.02 in0.5 mm
05:10 PM 85.3°F29.6°C 70.3°F21.3°C 61% 4.0 mph NE6.4 kmh NE -- 30.26 in1024.7 mb 0.00 in0.0 mm 0.00 in0.0 mm 0.02 in0.5 mm
05:15 PM 84.9°F29.4°C 70.0°F21.1°C 61% 8.0 mph ENE12.9 kmh ENE -- 30.26 in1024.7 mb 0.00 in0.0 mm 0.00 in0.0 mm 0.02 in0.5 mm
05:20 PM 84.4°F29.1°C 70.0°F21.1°C 62% 7.0 mph ESE11.3 kmh ESE -- 30.27 in1025.1 mb 0.00 in0.0 mm 0.00 in0.0 mm 0.02 in0.5 mm
05:25 PM 83.7°F28.7°C 70.2°F21.2°C 64% 5.0 mph E8.0 kmh E -- 30.26 in1024.7 mb 0.00 in0.0 mm 0.00 in0.0 mm 0.02 in0.5 mm
05:30 PM 83.7°F28.7°C 70.2°F21.2°C 64% 2.0 mph E3.2 kmh E -- 30.26 in1024.7 mb 0.00 in0.0 mm 0.00 in0.0 mm 0.02 in0.5 mm
05:35 PM 83.8°F28.8°C 70.4°F21.3°C 64% 11.0 mph NE17.7 kmh NE -- 30.26 in1024.7 mb 0.00 in0.0 mm 0.00 in0.0 mm 0.02 in0.5 mm
05:40 PM 84.0°F28.9°C 70.1°F21.2°C 63% 6.0 mph ENE9.7 kmh ENE -- 30.26 in1024.7 mb 0.00 in0.0 mm 0.00 in0.0 mm 0.02 in0.5 mm
05:45 PM 83.3°F28.5°C 69.4°F20.8°C 63% 7.0 mph ESE11.3 kmh ESE -- 30.26 in1024.7 mb 0.00 in0.0 mm 0.00 in0.0 mm 0.02 in0.5 mm
05:50 PM 82.9°F28.3°C 69.5°F20.8°C 64% 7.0 mph E11.3 kmh E -- 30.26 in1024.7 mb 0.00 in0.0 mm 0.00 in0.0 mm 0.02 in0.5 mm
05:55 PM 83.1°F28.4°C 69.7°F20.9°C 64% 3.0 mph NNE4.8 kmh NNE -- 30.26 in1024.7 mb 0.00 in0.0 mm 0.00 in0.0 mm 0.02 in0.5 mm
06:00 PM 83.7°F28.7°C 70.2°F21.2°C 64% 2.0 mph NNE3.2 kmh NNE -- 30.26 in1024.7 mb 0.00 in0.0 mm 0.00 in0.0 mm 0.02 in0.5 mm
06:05 PM 83.7°F28.7°C 70.2°F21.2°C 64% 7.0 mph ESE11.3 kmh ESE -- 30.26 in1024.7 mb 0.00 in0.0 mm 0.00 in0.0 mm 0.02 in0.5 mm
06:10 PM 82.9°F28.3°C 70.0°F21.1°C 65% 6.0 mph NNE9.7 kmh NNE -- 30.26 in1024.7 mb 0.00 in0.0 mm 0.00 in0.0 mm 0.02 in0.5 mm
06:15 PM 82.2°F27.9°C 69.3°F20.7°C 65% 9.0 mph ENE14.5 kmh ENE -- 30.26 in1024.7 mb 0.00 in0.0 mm 0.00 in0.0 mm 0.02 in0.5 mm
06:20 PM 81.7°F27.6°C 69.2°F20.7°C 66% 3.0 mph ESE4.8 kmh ESE -- 30.26 in1024.7 mb 0.00 in0.0 mm 0.00 in0.0 mm 0.02 in0.5 mm
06:25 PM 81.3°F27.4°C 69.3°F20.7°C 67% 9.0 mph ESE14.5 kmh ESE -- 30.26 in1024.7 mb 0.00 in0.0 mm 0.00 in0.0 mm 0.02 in0.5 mm
06:30 PM 81.1°F27.3°C 69.1°F20.6°C 67% 4.0 mph NE6.4 kmh NE -- 30.27 in1025.1 mb 0.00 in0.0 mm 0.00 in0.0 mm 0.02 in0.5 mm
06:35 PM 81.0°F27.2°C 69.4°F20.8°C 68% 2.0 mph NE3.2 kmh NE -- 30.27 in1025.1 mb 0.00 in0.0 mm 0.00 in0.0 mm 0.02 in0.5 mm
06:40 PM 80.8°F27.1°C 69.2°F20.7°C 68% 5.0 mph ENE8.0 kmh ENE -- 30.27 in1025.1 mb 0.00 in0.0 mm 0.00 in0.0 mm 0.02 in0.5 mm
06:45 PM 81.0°F27.2°C 69.4°F20.8°C 68% 5.0 mph NE8.0 kmh NE -- 30.27 in1025.1 mb 0.00 in0.0 mm 0.00 in0.0 mm 0.02 in0.5 mm
06:55 PM 81.0°F27.2°C 69.4°F20.8°C 68% 6.0 mph NNE9.7 kmh NNE -- 30.27 in1025.1 mb 0.00 in0.0 mm 0.00 in0.0 mm 0.02 in0.5 mm
07:00 PM 80.8°F27.1°C 69.2°F20.7°C 68% 7.0 mph NE11.3 kmh NE -- 30.27 in1025.1 mb 0.00 in0.0 mm 0.00 in0.0 mm 0.02 in0.5 mm
07:05 PM 80.4°F26.9°C 69.3°F20.7°C 69% 6.0 mph E9.7 kmh E -- 30.27 in1025.1 mb 0.00 in0.0 mm 0.00 in0.0 mm 0.02 in0.5 mm
07:10 PM 80.2°F26.8°C 69.1°F20.6°C 69% 6.0 mph NE9.7 kmh NE -- 30.27 in1025.1 mb 0.00 in0.0 mm 0.00 in0.0 mm 0.02 in0.5 mm
07:15 PM 80.1°F26.7°C 69.4°F20.8°C 70% 4.0 mph NE6.4 kmh NE -- 30.27 in1025.1 mb 0.00 in0.0 mm 0.00 in0.0 mm 0.02 in0.5 mm
07:20 PM 79.9°F26.6°C 69.6°F20.9°C 71% 4.0 mph ESE6.4 kmh ESE -- 30.27 in1025.1 mb 0.00 in0.0 mm 0.00 in0.0 mm 0.02 in0.5 mm
07:25 PM 79.7°F26.5°C 69.5°F20.8°C 71% 4.0 mph ESE6.4 kmh ESE -- 30.27 in1025.1 mb 0.00 in0.0 mm 0.00 in0.0 mm 0.02 in0.5 mm
07:30 PM 79.3°F26.3°C 69.1°F20.6°C 71% 6.0 mph E9.7 kmh E -- 30.27 in1025.1 mb 0.00 in0.0 mm 0.00 in0.0 mm 0.02 in0.5 mm
07:35 PM 79.2°F26.2°C 68.9°F20.5°C 71% 6.0 mph ENE9.7 kmh ENE -- 30.27 in1025.1 mb 0.00 in0.0 mm 0.00 in0.0 mm 0.02 in0.5 mm
07:40 PM 79.2°F26.2°C 68.9°F20.5°C 71% 2.0 mph E3.2 kmh E -- 30.27 in1025.1 mb 0.00 in0.0 mm 0.00 in0.0 mm 0.02 in0.5 mm
07:45 PM 78.8°F26.0°C 69.4°F20.8°C 73% 1.0 mph ENE1.6 kmh ENE -- 30.27 in1025.1 mb 0.00 in0.0 mm 0.00 in0.0 mm 0.02 in0.5 mm
07:50 PM 78.6°F25.9°C 68.8°F20.4°C 72% 2.0 mph ENE3.2 kmh ENE -- 30.27 in1025.1 mb 0.00 in0.0 mm 0.00 in0.0 mm 0.02 in0.5 mm
07:55 PM 78.6°F25.9°C 69.2°F20.7°C 73% 3.0 mph NE4.8 kmh NE -- 30.27 in1025.1 mb 0.00 in0.0 mm 0.00 in0.0 mm 0.02 in0.5 mm
08:00 PM 78.6°F25.9°C 69.2°F20.7°C 73% 1.0 mph E1.6 kmh E -- 30.27 in1025.1 mb 0.00 in0.0 mm 0.00 in0.0 mm 0.02 in0.5 mm
08:05 PM 78.4°F25.8°C 69.1°F20.6°C 73% 3.0 mph E4.8 kmh E -- 30.27 in1025.1 mb 0.00 in0.0 mm 0.00 in0.0 mm 0.02 in0.5 mm
08:10 PM 78.4°F25.8°C 69.4°F20.8°C 74% 1.0 mph E1.6 kmh E -- 30.27 in1025.1 mb 0.00 in0.0 mm 0.00 in0.0 mm 0.02 in0.5 mm
08:15 PM 78.1°F25.6°C 69.5°F20.8°C 75% 1.0 mph NE1.6 kmh NE -- 30.27 in1025.1 mb 0.00 in0.0 mm 0.00 in0.0 mm 0.02 in0.5 mm
08:20 PM 77.9°F25.5°C 69.3°F20.7°C 75% 2.0 mph ENE3.2 kmh ENE -- 30.27 in1025.1 mb 0.00 in0.0 mm 0.00 in0.0 mm 0.02 in0.5 mm
08:25 PM 77.7°F25.4°C 69.1°F20.6°C 75% 2.0 mph ENE3.2 kmh ENE -- 30.27 in1025.1 mb 0.00 in0.0 mm 0.00 in0.0 mm 0.02 in0.5 mm
08:30 PM 77.7°F25.4°C 69.5°F20.8°C 76% 2.0 mph ENE3.2 kmh ENE -- 30.27 in1025.1 mb 0.00 in0.0 mm 0.00 in0.0 mm 0.02 in0.5 mm
08:35 PM 77.7°F25.4°C 69.5°F20.8°C 76% 3.0 mph ENE4.8 kmh ENE -- 30.27 in1025.1 mb 0.00 in0.0 mm 0.00 in0.0 mm 0.02 in0.5 mm
08:40 PM 77.7°F25.4°C 69.5°F20.8°C 76% 3.0 mph E4.8 kmh E -- 30.27 in1025.1 mb 0.00 in0.0 mm 0.00 in0.0 mm 0.02 in0.5 mm
08:45 PM 77.7°F25.4°C 69.5°F20.8°C 76% 2.0 mph ENE3.2 kmh ENE -- 30.28 in1025.4 mb 0.00 in0.0 mm 0.00 in0.0 mm 0.02 in0.5 mm
08:50 PM 77.7°F25.4°C 69.5°F20.8°C 76% 3.0 mph NE4.8 kmh NE -- 30.27 in1025.1 mb 0.00 in0.0 mm 0.00 in0.0 mm 0.02 in0.5 mm
08:55 PM 77.7°F25.4°C 69.9°F21.1°C 77% 3.0 mph NE4.8 kmh NE -- 30.27 in1025.1 mb 0.00 in0.0 mm 0.00 in0.0 mm 0.02 in0.5 mm
09:00 PM 77.7°F25.4°C 69.9°F21.1°C 77% 4.0 mph ESE6.4 kmh ESE -- 30.27 in1025.1 mb 0.00 in0.0 mm 0.00 in0.0 mm 0.02 in0.5 mm
09:05 PM 77.7°F25.4°C 70.7°F21.5°C 79% 2.0 mph ENE3.2 kmh ENE -- 30.27 in1025.1 mb 0.00 in0.0 mm 0.00 in0.0 mm 0.02 in0.5 mm
09:10 PM 77.5°F25.3°C 70.5°F21.4°C 79% 1.0 mph NE1.6 kmh NE -- 30.28 in1025.4 mb 0.00 in0.0 mm 0.00 in0.0 mm 0.02 in0.5 mm
09:15 PM 77.5°F25.3°C 70.5°F21.4°C 79% 3.0 mph ENE4.8 kmh ENE -- 30.28 in1025.4 mb 0.00 in0.0 mm 0.00 in0.0 mm 0.02 in0.5 mm
09:20 PM 77.4°F25.2°C 70.7°F21.5°C 80% 2.0 mph ENE3.2 kmh ENE -- 30.27 in1025.1 mb 0.00 in0.0 mm 0.00 in0.0 mm 0.02 in0.5 mm
09:25 PM 77.4°F25.2°C 70.7°F21.5°C 80% 2.0 mph ESE3.2 kmh ESE -- 30.27 in1025.1 mb 0.00 in0.0 mm 0.00 in0.0 mm 0.02 in0.5 mm
09:30 PM 77.0°F25.0°C 70.7°F21.5°C 81% 3.0 mph ENE4.8 kmh ENE -- 30.27 in1025.1 mb 0.00 in0.0 mm 0.00 in0.0 mm 0.02 in0.5 mm
09:35 PM 77.0°F25.0°C 70.7°F21.5°C 81% 2.0 mph ENE3.2 kmh ENE -- 30.27 in1025.1 mb 0.00 in0.0 mm 0.00 in0.0 mm 0.02 in0.5 mm
09:40 PM 77.0°F25.0°C 70.7°F21.5°C 81% 1.0 mph ENE1.6 kmh ENE -- 30.28 in1025.4 mb 0.00 in0.0 mm 0.00 in0.0 mm 0.02 in0.5 mm
09:45 PM 77.0°F25.0°C 71.1°F21.7°C 82% Calm Calm -- 30.28 in1025.4 mb 0.00 in0.0 mm 0.00 in0.0 mm 0.02 in0.5 mm
09:50 PM 76.8°F24.9°C 71.3°F21.8°C 83% Calm Calm -- 30.28 in1025.4 mb 0.00 in0.0 mm 0.00 in0.0 mm 0.02 in0.5 mm
09:55 PM 76.5°F24.7°C 70.9°F21.6°C 83% 1.0 mph E1.6 kmh E -- 30.28 in1025.4 mb 0.00 in0.0 mm 0.00 in0.0 mm 0.02 in0.5 mm
10:00 PM 76.5°F24.7°C 70.9°F21.6°C 83% Calm Calm -- 30.28 in1025.4 mb 0.00 in0.0 mm 0.00 in0.0 mm 0.02 in0.5 mm
10:05 PM 76.3°F24.6°C 70.7°F21.5°C 83% 1.0 mph ENE1.6 kmh ENE -- 30.28 in1025.4 mb 0.00 in0.0 mm 0.00 in0.0 mm 0.02 in0.5 mm
10:10 PM 75.9°F24.4°C 70.7°F21.5°C 84% 2.0 mph ESE3.2 kmh ESE -- 30.28 in1025.4 mb 0.00 in0.0 mm 0.00 in0.0 mm 0.02 in0.5 mm
10:15 PM 75.7°F24.3°C 70.2°F21.2°C 83% 2.0 mph E3.2 kmh E -- 30.28 in1025.4 mb 0.00 in0.0 mm 0.00 in0.0 mm 0.02 in0.5 mm
10:20 PM 75.6°F24.2°C 70.0°F21.1°C 83% 1.0 mph E1.6 kmh E -- 30.28 in1025.4 mb 0.00 in0.0 mm 0.00 in0.0 mm 0.02 in0.5 mm
10:25 PM 75.7°F24.3°C 70.2°F21.2°C 83% 1.0 mph NE1.6 kmh NE -- 30.28 in1025.4 mb 0.00 in0.0 mm 0.00 in0.0 mm 0.02 in0.5 mm
10:30 PM 75.6°F24.2°C 70.0°F21.1°C 83% Calm Calm -- 30.28 in1025.4 mb 0.00 in0.0 mm 0.00 in0.0 mm 0.02 in0.5 mm
10:35 PM 75.6°F24.2°C 70.0°F21.1°C 83% 1.0 mph ENE1.6 kmh ENE -- 30.28 in1025.4 mb 0.00 in0.0 mm 0.00 in0.0 mm 0.02 in0.5 mm
10:40 PM 75.2°F24.0°C 69.7°F20.9°C 83% 1.0 mph ENE1.6 kmh ENE -- 30.28 in1025.4 mb 0.00 in0.0 mm 0.00 in0.0 mm 0.02 in0.5 mm
10:45 PM 75.4°F24.1°C 69.8°F21.0°C 83% Calm Calm -- 30.28 in1025.4 mb 0.00 in0.0 mm 0.00 in0.0 mm 0.02 in0.5 mm
10:50 PM 75.2°F24.0°C 70.0°F21.1°C 84% Calm Calm -- 30.28 in1025.4 mb 0.00 in0.0 mm 0.00 in0.0 mm 0.02 in0.5 mm
10:55 PM 75.0°F23.9°C 69.8°F21.0°C 84% Calm Calm -- 30.28 in1025.4 mb 0.00 in0.0 mm 0.00 in0.0 mm 0.02 in0.5 mm
11:00 PM 74.8°F23.8°C 69.7°F20.9°C 84% Calm Calm -- 30.28 in1025.4 mb 0.00 in0.0 mm 0.00 in0.0 mm 0.02 in0.5 mm
11:05 PM 74.5°F23.6°C 69.7°F20.9°C 85% Calm Calm -- 30.28 in1025.4 mb 0.00 in0.0 mm 0.00 in0.0 mm 0.02 in0.5 mm
11:10 PM 74.1°F23.4°C 69.6°F20.9°C 86% Calm Calm -- 30.28 in1025.4 mb 0.00 in0.0 mm 0.00 in0.0 mm 0.02 in0.5 mm
11:15 PM 73.6°F23.1°C 69.8°F21.0°C 88% Calm Calm -- 30.28 in1025.4 mb 0.00 in0.0 mm 0.00 in0.0 mm 0.02 in0.5 mm
11:20 PM 73.2°F22.9°C 69.4°F20.8°C 88% Calm Calm -- 30.28 in1025.4 mb 0.00 in0.0 mm 0.00 in0.0 mm 0.02 in0.5 mm
11:25 PM 72.9°F22.7°C 69.4°F20.8°C 89% Calm Calm -- 30.28 in1025.4 mb 0.00 in0.0 mm 0.00 in0.0 mm 0.02 in0.5 mm
11:30 PM 72.5°F22.5°C 69.1°F20.6°C 89% Calm Calm -- 30.28 in1025.4 mb 0.00 in0.0 mm 0.00 in0.0 mm 0.02 in0.5 mm
11:35 PM 72.5°F22.5°C 69.4°F20.8°C 90% Calm Calm -- 30.28 in1025.4 mb 0.00 in0.0 mm 0.00 in0.0 mm 0.02 in0.5 mm
11:40 PM 72.3°F22.4°C 69.2°F20.7°C 90% Calm Calm -- 30.28 in1025.4 mb 0.00 in0.0 mm 0.00 in0.0 mm 0.02 in0.5 mm
11:45 PM 72.1°F22.3°C 69.0°F20.6°C 90% Calm Calm -- 30.28 in1025.4 mb 0.00 in0.0 mm 0.00 in0.0 mm 0.02 in0.5 mm
11:50 PM 72.0°F22.2°C 68.9°F20.5°C 90% Calm Calm -- 30.28 in1025.4 mb 0.00 in0.0 mm 0.00 in0.0 mm 0.02 in0.5 mm
11:55 PM 71.8°F22.1°C 68.7°F20.4°C 90% Calm Calm -- 30.28 in1025.4 mb 0.00 in0.0 mm 0.00 in0.0 mm 0.02 in0.5 mm